sensor_id;sensor_type;location;lat;lon;timestamp;pressure;altitude;pressure_sealevel;temperature;humidity
6038;BME280;3047;42.600;23.470;2023-06-24T00:00:14;93120.13;;;23.11;94.50
6038;BME280;3047;42.600;23.470;2023-06-24T00:02:43;93129.03;;;23.30;93.93
6038;BME280;3047;42.600;23.470;2023-06-24T00:05:10;93125.38;;;23.32;93.48
6038;BME280;3047;42.600;23.470;2023-06-24T00:07:37;93138.97;;;23.23;94.75
6038;BME280;3047;42.600;23.470;2023-06-24T00:10:09;93138.28;;;23.21;93.81
6038;BME280;3047;42.600;23.470;2023-06-24T00:12:37;93131.97;;;23.14;95.44
6038;BME280;3047;42.600;23.470;2023-06-24T00:15:05;93134.88;;;23.20;95.18
6038;BME280;3047;42.600;23.470;2023-06-24T00:17:33;93122.81;;;23.21;93.32
6038;BME280;3047;42.600;23.470;2023-06-24T00:20:01;93141.22;;;23.28;93.34
6038;BME280;3047;42.600;23.470;2023-06-24T00:22:28;93134.75;;;23.33;91.92
6038;BME280;3047;42.600;23.470;2023-06-24T00:24:55;93129.72;;;23.20;93.45
6038;BME280;3047;42.600;23.470;2023-06-24T00:27:22;93132.78;;;23.14;93.32
6038;BME280;3047;42.600;23.470;2023-06-24T00:29:48;93135.13;;;23.17;93.28
6038;BME280;3047;42.600;23.470;2023-06-24T00:32:15;93129.63;;;23.11;93.97
6038;BME280;3047;42.600;23.470;2023-06-24T00:34:42;93125.41;;;23.10;94.67
6038;BME280;3047;42.600;23.470;2023-06-24T00:37:10;93116.47;;;22.91;96.34
6038;BME280;3047;42.600;23.470;2023-06-24T00:39:37;93125.41;;;22.99;94.97
6038;BME280;3047;42.600;23.470;2023-06-24T00:42:04;93137.34;;;23.00;93.82
6038;BME280;3047;42.600;23.470;2023-06-24T00:44:31;93127.16;;;22.98;92.48
6038;BME280;3047;42.600;23.470;2023-06-24T00:46:58;93131.38;;;22.99;94.15
6038;BME280;3047;42.600;23.470;2023-06-24T00:49:25;93132.13;;;22.88;97.54
6038;BME280;3047;42.600;23.470;2023-06-24T00:51:51;93130.41;;;22.89;96.34
6038;BME280;3047;42.600;23.470;2023-06-24T00:54:19;93134.97;;;22.85;98.35
6038;BME280;3047;42.600;23.470;2023-06-24T00:56:46;93131.28;;;22.77;100.00
6038;BME280;3047;42.600;23.470;2023-06-24T00:59:15;93126.16;;;22.65;100.00
6038;BME280;3047;42.600;23.470;2023-06-24T01:01:43;93123.81;;;22.62;100.00
6038;BME280;3047;42.600;23.470;2023-06-24T01:04:11;93125.19;;;22.55;100.00
6038;BME280;3047;42.600;23.470;2023-06-24T01:06:38;93132.31;;;22.40;100.00
6038;BME280;3047;42.600;23.470;2023-06-24T01:09:09;93125.00;;;22.34;100.00
6038;BME280;3047;42.600;23.470;2023-06-24T01:11:37;93118.41;;;22.19;100.00
6038;BME280;3047;42.600;23.470;2023-06-24T01:14:04;93056.59;;;21.72;100.00
6038;BME280;3047;42.600;23.470;2023-06-24T01:16:36;93119.56;;;21.91;100.00
6038;BME280;3047;42.600;23.470;2023-06-24T01:19:19;93109.78;;;21.96;100.00
6038;BME280;3047;42.600;23.470;2023-06-24T01:22:04;93097.34;;;22.14;99.07
6038;BME280;3047;42.600;23.470;2023-06-24T01:24:59;93105.66;;;22.17;97.28
6038;BME280;3047;42.600;23.470;2023-06-24T01:28:00;93122.94;;;22.15;98.36
6038;BME280;3047;42.600;23.470;2023-06-24T01:30:52;93109.88;;;22.18;97.07
6038;BME280;3047;42.600;23.470;2023-06-24T01:33:26;93119.59;;;22.26;96.46
6038;BME280;3047;42.600;23.470;2023-06-24T01:35:56;93118.84;;;22.37;96.01
6038;BME280;3047;42.600;23.470;2023-06-24T01:38:29;93114.75;;;22.45;94.13
6038;BME280;3047;42.600;23.470;2023-06-24T01:40:58;93107.72;;;22.36;95.13
6038;BME280;3047;42.600;23.470;2023-06-24T01:43:27;93102.31;;;22.28;96.36
6038;BME280;3047;42.600;23.470;2023-06-24T01:45:55;93102.56;;;22.36;94.63
6038;BME280;3047;42.600;23.470;2023-06-24T01:48:25;93099.41;;;22.44;95.10
6038;BME280;3047;42.600;23.470;2023-06-24T01:50:58;93101.88;;;22.45;94.86
6038;BME280;3047;42.600;23.470;2023-06-24T01:53:27;93105.16;;;22.48;94.48
6038;BME280;3047;42.600;23.470;2023-06-24T01:55:57;93109.16;;;22.63;93.66
6038;BME280;3047;42.600;23.470;2023-06-24T01:58:26;93102.00;;;22.55;93.90
6038;BME280;3047;42.600;23.470;2023-06-24T02:00:55;93100.25;;;22.44;94.53
6038;BME280;3047;42.600;23.470;2023-06-24T02:03:24;93111.03;;;22.50;94.13
6038;BME280;3047;42.600;23.470;2023-06-24T02:05:53;93090.75;;;22.34;94.29
6038;BME280;3047;42.600;23.470;2023-06-24T02:08:21;93121.16;;;22.40;95.01
6038;BME280;3047;42.600;23.470;2023-06-24T02:10:49;93117.94;;;22.49;94.95
6038;BME280;3047;42.600;23.470;2023-06-24T02:13:17;93106.06;;;22.35;95.63
6038;BME280;3047;42.600;23.470;2023-06-24T02:15:46;93124.38;;;22.55;94.68
6038;BME280;3047;42.600;23.470;2023-06-24T02:18:14;93135.44;;;22.44;98.47
6038;BME280;3047;42.600;23.470;2023-06-24T02:20:44;93131.97;;;22.45;96.04
6038;BME280;3047;42.600;23.470;2023-06-24T02:23:12;93142.34;;;22.32;98.54
6038;BME280;3047;42.600;23.470;2023-06-24T02:25:40;93118.94;;;22.11;99.35
6038;BME280;3047;42.600;23.470;2023-06-24T02:28:08;93141.13;;;22.25;99.90
6038;BME280;3047;42.600;23.470;2023-06-24T02:30:37;93152.13;;;22.27;100.00
6038;BME280;3047;42.600;23.470;2023-06-24T02:33:04;93097.69;;;21.85;100.00
6038;BME280;3047;42.600;23.470;2023-06-24T02:35:32;93132.81;;;21.97;100.00
6038;BME280;3047;42.600;23.470;2023-06-24T02:38:00;93120.34;;;21.80;100.00
6038;BME280;3047;42.600;23.470;2023-06-24T02:40:28;93157.63;;;22.10;100.00
6038;BME280;3047;42.600;23.470;2023-06-24T02:42:56;93172.31;;;21.96;100.00
6038;BME280;3047;42.600;23.470;2023-06-24T02:45:23;93173.59;;;21.78;100.00
6038;BME280;3047;42.600;23.470;2023-06-24T02:47:51;93201.53;;;21.71;100.00
6038;BME280;3047;42.600;23.470;2023-06-24T02:50:19;93202.94;;;21.63;100.00
6038;BME280;3047;42.600;23.470;2023-06-24T02:52:46;93183.25;;;21.38;100.00
6038;BME280;3047;42.600;23.470;2023-06-24T02:55:15;93213.59;;;21.33;100.00
6038;BME280;3047;42.600;23.470;2023-06-24T02:57:42;93198.06;;;21.09;100.00
6038;BME280;3047;42.600;23.470;2023-06-24T03:00:10;93202.16;;;21.24;100.00
6038;BME280;3047;42.600;23.470;2023-06-24T03:02:38;93190.25;;;21.10;100.00
6038;BME280;3047;42.600;23.470;2023-06-24T03:05:06;93197.66;;;21.28;100.00
6038;BME280;3047;42.600;23.470;2023-06-24T03:07:34;93203.50;;;21.30;100.00
6038;BME280;3047;42.600;23.470;2023-06-24T03:10:02;93197.72;;;21.26;100.00
6038;BME280;3047;42.600;23.470;2023-06-24T03:12:31;93213.06;;;21.15;100.00
6038;BME280;3047;42.600;23.470;2023-06-24T03:14:58;93202.06;;;21.13;100.00
6038;BME280;3047;42.600;23.470;2023-06-24T03:17:26;93201.94;;;21.14;100.00
6038;BME280;3047;42.600;23.470;2023-06-24T03:19:52;93205.13;;;21.18;100.00
6038;BME280;3047;42.600;23.470;2023-06-24T03:22:19;93201.25;;;21.12;100.00
6038;BME280;3047;42.600;23.470;2023-06-24T03:24:46;93202.19;;;21.11;100.00
6038;BME280;3047;42.600;23.470;2023-06-24T03:27:12;93205.06;;;21.07;100.00
6038;BME280;3047;42.600;23.470;2023-06-24T03:29:40;93204.66;;;21.00;100.00
6038;BME280;3047;42.600;23.470;2023-06-24T03:32:07;93207.53;;;20.95;100.00
6038;BME280;3047;42.600;23.470;2023-06-24T03:34:34;93208.09;;;20.86;100.00
6038;BME280;3047;42.600;23.470;2023-06-24T03:37:01;93186.84;;;20.59;100.00
6038;BME280;3047;42.600;23.470;2023-06-24T03:39:29;93221.38;;;20.80;100.00
6038;BME280;3047;42.600;23.470;2023-06-24T03:41:56;93226.31;;;20.83;100.00
6038;BME280;3047;42.600;23.470;2023-06-24T03:44:23;93241.84;;;20.94;100.00
6038;BME280;3047;42.600;23.470;2023-06-24T03:46:51;93247.16;;;20.91;100.00
6038;BME280;3047;42.600;23.470;2023-06-24T03:49:17;93252.28;;;20.79;100.00
6038;BME280;3047;42.600;23.470;2023-06-24T03:51:44;93244.03;;;20.73;100.00
6038;BME280;3047;42.600;23.470;2023-06-24T03:54:11;93253.94;;;20.92;100.00
6038;BME280;3047;42.600;23.470;2023-06-24T03:56:37;93247.16;;;21.04;100.00
6038;BME280;3047;42.600;23.470;2023-06-24T03:59:04;93243.91;;;21.15;100.00
6038;BME280;3047;42.600;23.470;2023-06-24T04:01:31;93212.03;;;21.05;100.00
6038;BME280;3047;42.600;23.470;2023-06-24T04:03:59;93245.03;;;21.23;100.00
6038;BME280;3047;42.600;23.470;2023-06-24T04:06:26;93238.84;;;21.26;100.00
6038;BME280;3047;42.600;23.470;2023-06-24T04:08:53;93235.06;;;21.32;100.00
6038;BME280;3047;42.600;23.470;2023-06-24T04:11:20;93220.47;;;21.19;100.00
6038;BME280;3047;42.600;23.470;2023-06-24T04:13:46;93224.03;;;21.30;100.00
6038;BME280;3047;42.600;23.470;2023-06-24T04:16:13;93235.38;;;21.40;100.00
6038;BME280;3047;42.600;23.470;2023-06-24T04:18:40;93245.97;;;21.48;100.00
6038;BME280;3047;42.600;23.470;2023-06-24T04:21:08;93238.03;;;21.51;100.00
6038;BME280;3047;42.600;23.470;2023-06-24T04:23:35;93237.75;;;21.56;100.00
6038;BME280;3047;42.600;23.470;2023-06-24T04:26:02;93207.63;;;21.45;100.00
6038;BME280;3047;42.600;23.470;2023-06-24T04:28:28;93217.25;;;21.54;100.00
6038;BME280;3047;42.600;23.470;2023-06-24T04:30:56;93239.63;;;21.78;100.00
6038;BME280;3047;42.600;23.470;2023-06-24T04:33:22;93237.47;;;21.84;100.00
6038;BME280;3047;42.600;23.470;2023-06-24T04:35:49;93233.75;;;21.88;100.00
6038;BME280;3047;42.600;23.470;2023-06-24T04:38:18;93170.78;;;21.57;100.00
6038;BME280;3047;42.600;23.470;2023-06-24T04:40:45;93235.03;;;22.07;100.00
6038;BME280;3047;42.600;23.470;2023-06-24T04:43:12;93226.38;;;22.08;100.00
6038;BME280;3047;42.600;23.470;2023-06-24T04:45:39;93225.44;;;22.21;100.00
6038;BME280;3047;42.600;23.470;2023-06-24T04:48:05;93227.34;;;22.31;100.00
6038;BME280;3047;42.600;23.470;2023-06-24T04:50:32;93223.28;;;22.39;100.00
6038;BME280;3047;42.600;23.470;2023-06-24T04:52:59;93225.66;;;22.42;100.00
6038;BME280;3047;42.600;23.470;2023-06-24T04:55:28;93223.06;;;22.42;100.00
6038;BME280;3047;42.600;23.470;2023-06-24T04:57:56;93221.53;;;22.40;100.00
6038;BME280;3047;42.600;23.470;2023-06-24T05:00:23;93230.25;;;22.50;100.00
6038;BME280;3047;42.600;23.470;2023-06-24T05:02:50;93226.56;;;22.65;100.00
6038;BME280;3047;42.600;23.470;2023-06-24T05:05:17;93231.72;;;22.65;100.00
6038;BME280;3047;42.600;23.470;2023-06-24T05:07:44;93249.28;;;22.71;100.00
6038;BME280;3047;42.600;23.470;2023-06-24T05:10:11;93249.75;;;22.77;100.00
6038;BME280;3047;42.600;23.470;2023-06-24T05:12:39;93236.06;;;22.76;100.00
6038;BME280;3047;42.600;23.470;2023-06-24T05:15:06;93235.41;;;22.85;100.00
6038;BME280;3047;42.600;23.470;2023-06-24T05:17:33;93236.75;;;22.91;100.00
6038;BME280;3047;42.600;23.470;2023-06-24T05:20:00;93213.28;;;22.83;100.00
6038;BME280;3047;42.600;23.470;2023-06-24T05:22:28;93237.00;;;22.99;100.00
6038;BME280;3047;42.600;23.470;2023-06-24T05:24:54;93241.09;;;23.13;100.00
6038;BME280;3047;42.600;23.470;2023-06-24T05:27:21;93233.75;;;23.19;100.00
6038;BME280;3047;42.600;23.470;2023-06-24T05:29:49;93229.63;;;23.17;100.00
6038;BME280;3047;42.600;23.470;2023-06-24T05:32:15;93226.75;;;23.22;100.00
6038;BME280;3047;42.600;23.470;2023-06-24T05:34:45;93231.41;;;23.28;100.00
6038;BME280;3047;42.600;23.470;2023-06-24T05:37:12;93216.16;;;23.25;100.00
6038;BME280;3047;42.600;23.470;2023-06-24T05:39:39;93216.06;;;23.26;100.00
6038;BME280;3047;42.600;23.470;2023-06-24T05:42:06;93228.03;;;23.38;100.00
6038;BME280;3047;42.600;23.470;2023-06-24T05:44:33;93224.03;;;23.45;100.00
6038;BME280;3047;42.600;23.470;2023-06-24T05:47:01;93227.69;;;23.43;100.00
6038;BME280;3047;42.600;23.470;2023-06-24T05:49:28;93220.31;;;23.38;100.00
6038;BME280;3047;42.600;23.470;2023-06-24T05:51:55;93219.94;;;23.43;100.00
6038;BME280;3047;42.600;23.470;2023-06-24T05:54:22;93226.03;;;23.53;100.00
6038;BME280;3047;42.600;23.470;2023-06-24T05:56:49;93217.72;;;23.61;100.00
6038;BME280;3047;42.600;23.470;2023-06-24T05:59:15;93219.72;;;23.68;100.00
6038;BME280;3047;42.600;23.470;2023-06-24T06:01:42;93211.75;;;23.72;100.00
6038;BME280;3047;42.600;23.470;2023-06-24T06:04:10;93228.41;;;23.79;100.00
6038;BME280;3047;42.600;23.470;2023-06-24T06:06:37;93221.13;;;23.84;100.00
6038;BME280;3047;42.600;23.470;2023-06-24T06:09:05;93228.38;;;23.90;100.00
6038;BME280;3047;42.600;23.470;2023-06-24T06:11:32;93224.75;;;23.92;100.00
6038;BME280;3047;42.600;23.470;2023-06-24T06:13:58;93224.16;;;24.00;100.00
6038;BME280;3047;42.600;23.470;2023-06-24T06:16:25;93198.72;;;23.84;100.00
6038;BME280;3047;42.600;23.470;2023-06-24T06:18:53;93223.66;;;24.06;100.00
6038;BME280;3047;42.600;23.470;2023-06-24T06:21:21;93203.66;;;23.99;100.00
6038;BME280;3047;42.600;23.470;2023-06-24T06:23:48;93191.66;;;23.98;100.00
6038;BME280;3047;42.600;23.470;2023-06-24T06:26:15;93213.00;;;24.11;100.00
6038;BME280;3047;42.600;23.470;2023-06-24T06:28:42;93205.56;;;24.17;100.00
6038;BME280;3047;42.600;23.470;2023-06-24T06:31:08;93212.59;;;24.27;100.00
6038;BME280;3047;42.600;23.470;2023-06-24T06:33:35;93216.69;;;24.29;100.00
6038;BME280;3047;42.600;23.470;2023-06-24T06:36:02;93028.19;;;23.12;100.00
6038;BME280;3047;42.600;23.470;2023-06-24T06:38:33;93210.34;;;24.33;100.00
6038;BME280;3047;42.600;23.470;2023-06-24T06:40:59;93217.50;;;24.41;100.00
6038;BME280;3047;42.600;23.470;2023-06-24T06:43:26;93226.66;;;24.45;100.00
6038;BME280;3047;42.600;23.470;2023-06-24T06:45:53;93210.78;;;24.50;100.00
6038;BME280;3047;42.600;23.470;2023-06-24T06:48:19;93224.50;;;24.50;100.00
6038;BME280;3047;42.600;23.470;2023-06-24T06:50:46;93224.34;;;24.63;100.00
6038;BME280;3047;42.600;23.470;2023-06-24T06:53:13;93230.78;;;24.69;100.00
6038;BME280;3047;42.600;23.470;2023-06-24T06:55:41;93228.50;;;24.75;100.00
6038;BME280;3047;42.600;23.470;2023-06-24T06:58:08;93221.28;;;24.90;100.00
6038;BME280;3047;42.600;23.470;2023-06-24T07:00:36;93221.16;;;24.91;100.00
6038;BME280;3047;42.600;23.470;2023-06-24T07:03:03;93188.50;;;24.70;100.00
6038;BME280;3047;42.600;23.470;2023-06-24T07:05:29;93221.72;;;24.95;100.00
6038;BME280;3047;42.600;23.470;2023-06-24T07:07:56;93225.00;;;24.97;100.00
6038;BME280;3047;42.600;23.470;2023-06-24T07:10:23;93231.19;;;25.06;100.00
6038;BME280;3047;42.600;23.470;2023-06-24T07:12:51;93233.16;;;25.13;100.00
6038;BME280;3047;42.600;23.470;2023-06-24T07:15:24;93236.25;;;25.28;100.00
6038;BME280;3047;42.600;23.470;2023-06-24T07:17:50;93245.25;;;25.34;100.00
6038;BME280;3047;42.600;23.470;2023-06-24T07:20:17;93242.28;;;25.38;100.00
6038;BME280;3047;42.600;23.470;2023-06-24T07:22:44;93237.19;;;25.48;100.00
6038;BME280;3047;42.600;23.470;2023-06-24T07:25:11;93230.13;;;25.60;100.00
6038;BME280;3047;42.600;23.470;2023-06-24T07:27:38;93241.34;;;25.70;100.00
6038;BME280;3047;42.600;23.470;2023-06-24T07:30:07;93236.78;;;25.83;100.00
6038;BME280;3047;42.600;23.470;2023-06-24T07:32:34;93231.91;;;25.90;100.00
6038;BME280;3047;42.600;23.470;2023-06-24T07:35:00;93237.66;;;26.03;100.00
6038;BME280;3047;42.600;23.470;2023-06-24T07:37:27;93222.69;;;25.97;100.00
6038;BME280;3047;42.600;23.470;2023-06-24T07:39:54;93240.47;;;26.21;100.00
6038;BME280;3047;42.600;23.470;2023-06-24T07:42:20;93238.44;;;26.34;100.00
6038;BME280;3047;42.600;23.470;2023-06-24T07:44:47;93241.59;;;26.48;100.00
6038;BME280;3047;42.600;23.470;2023-06-24T07:47:16;93234.53;;;26.59;100.00
6038;BME280;3047;42.600;23.470;2023-06-24T07:49:43;93226.75;;;26.69;100.00
6038;BME280;3047;42.600;23.470;2023-06-24T07:52:10;93240.50;;;26.89;100.00
6038;BME280;3047;42.600;23.470;2023-06-24T07:54:36;93193.75;;;26.71;97.69
6038;BME280;3047;42.600;23.470;2023-06-24T07:57:03;93202.31;;;26.91;93.52
6038;BME280;3047;42.600;23.470;2023-06-24T07:59:30;93246.66;;;27.27;94.13
6038;BME280;3047;42.600;23.470;2023-06-24T08:01:57;93245.13;;;27.44;98.32
6038;BME280;3047;42.600;23.470;2023-06-24T08:04:25;93246.81;;;27.63;100.00
6038;BME280;3047;42.600;23.470;2023-06-24T08:06:52;93254.19;;;27.77;98.23
6038;BME280;3047;42.600;23.470;2023-06-24T08:09:19;93253.16;;;27.97;91.87
6038;BME280;3047;42.600;23.470;2023-06-24T08:11:46;93243.22;;;28.10;97.09
6038;BME280;3047;42.600;23.470;2023-06-24T08:14:12;93247.78;;;28.26;87.22
6038;BME280;3047;42.600;23.470;2023-06-24T08:16:39;93240.38;;;28.41;84.82
6038;BME280;3047;42.600;23.470;2023-06-24T08:19:06;93239.91;;;28.64;88.28
6038;BME280;3047;42.600;23.470;2023-06-24T08:21:34;93246.25;;;28.79;87.85
6038;BME280;3047;42.600;23.470;2023-06-24T08:24:00;93240.22;;;28.96;84.71
6038;BME280;3047;42.600;23.470;2023-06-24T08:26:27;93237.19;;;29.19;82.61
6038;BME280;3047;42.600;23.470;2023-06-24T08:28:54;93218.03;;;29.28;84.28
6038;BME280;3047;42.600;23.470;2023-06-24T08:31:21;93235.16;;;29.56;84.71
6038;BME280;3047;42.600;23.470;2023-06-24T08:33:51;93239.81;;;29.71;83.84
6038;BME280;3047;42.600;23.470;2023-06-24T08:36:18;93232.69;;;29.81;80.65
6038;BME280;3047;42.600;23.470;2023-06-24T08:38:46;93235.41;;;30.05;78.27
6038;BME280;3047;42.600;23.470;2023-06-24T08:41:13;93211.00;;;30.07;76.08
6038;BME280;3047;42.600;23.470;2023-06-24T08:43:40;93205.19;;;30.21;77.92
6038;BME280;3047;42.600;23.470;2023-06-24T08:46:08;93221.41;;;30.49;78.04
6038;BME280;3047;42.600;23.470;2023-06-24T08:48:35;93228.91;;;30.60;78.38
6038;BME280;3047;42.600;23.470;2023-06-24T08:51:07;93222.59;;;30.71;75.13
6038;BME280;3047;42.600;23.470;2023-06-24T08:53:34;93219.16;;;30.78;74.61
6038;BME280;3047;42.600;23.470;2023-06-24T08:56:04;93212.03;;;30.89;78.40
6038;BME280;3047;42.600;23.470;2023-06-24T08:58:31;93209.91;;;31.00;78.98
6038;BME280;3047;42.600;23.470;2023-06-24T09:00:57;93203.38;;;31.05;76.07
6038;BME280;3047;42.600;23.470;2023-06-24T09:03:24;93210.53;;;31.11;73.73
6038;BME280;3047;42.600;23.470;2023-06-24T09:05:51;93209.88;;;31.25;72.07
6038;BME280;3047;42.600;23.470;2023-06-24T09:08:17;93209.41;;;31.38;75.98
6038;BME280;3047;42.600;23.470;2023-06-24T09:10:52;93212.69;;;31.40;70.21
6038;BME280;3047;42.600;23.470;2023-06-24T09:13:21;93200.56;;;31.47;73.21
6038;BME280;3047;42.600;23.470;2023-06-24T09:15:53;93207.06;;;31.59;71.79
6038;BME280;3047;42.600;23.470;2023-06-24T09:18:30;93204.78;;;31.72;70.22
6038;BME280;3047;42.600;23.470;2023-06-24T09:20:57;93193.16;;;31.75;71.55
6038;BME280;3047;42.600;23.470;2023-06-24T09:23:26;93205.69;;;31.80;67.01
6038;BME280;3047;42.600;23.470;2023-06-24T09:25:56;93210.59;;;31.83;71.60
6038;BME280;3047;42.600;23.470;2023-06-24T09:28:27;93203.28;;;31.86;63.89
6038;BME280;3047;42.600;23.470;2023-06-24T09:31:05;93158.09;;;31.69;70.60
6038;BME280;3047;42.600;23.470;2023-06-24T09:33:32;93208.09;;;32.06;66.75
6038;BME280;3047;42.600;23.470;2023-06-24T09:36:02;93212.50;;;32.05;66.68
6038;BME280;3047;42.600;23.470;2023-06-24T09:38:35;93212.88;;;31.94;61.66
6038;BME280;3047;42.600;23.470;2023-06-24T09:41:03;93220.72;;;31.94;64.28
6038;BME280;3047;42.600;23.470;2023-06-24T09:43:33;93217.75;;;32.05;65.46
6038;BME280;3047;42.600;23.470;2023-06-24T09:46:01;93176.00;;;31.89;68.52
6038;BME280;3047;42.600;23.470;2023-06-24T09:48:28;93220.78;;;32.17;65.36
6038;BME280;3047;42.600;23.470;2023-06-24T09:50:55;93215.22;;;32.20;63.77
6038;BME280;3047;42.600;23.470;2023-06-24T09:53:25;93219.28;;;32.22;68.95
6038;BME280;3047;42.600;23.470;2023-06-24T09:55:53;93219.59;;;32.28;63.92
6038;BME280;3047;42.600;23.470;2023-06-24T09:58:20;93219.75;;;32.26;61.88
6038;BME280;3047;42.600;23.470;2023-06-24T10:00:49;93208.34;;;32.19;61.07
6038;BME280;3047;42.600;23.470;2023-06-24T10:03:17;93216.50;;;32.24;62.40
6038;BME280;3047;42.600;23.470;2023-06-24T10:05:44;93211.97;;;32.18;60.99
6038;BME280;3047;42.600;23.470;2023-06-24T10:08:13;93205.75;;;32.19;65.55
6038;BME280;3047;42.600;23.470;2023-06-24T10:10:40;93194.78;;;32.23;63.00
6038;BME280;3047;42.600;23.470;2023-06-24T10:13:07;93192.34;;;32.22;63.55
6038;BME280;3047;42.600;23.470;2023-06-24T10:15:35;93196.25;;;32.26;61.59
6038;BME280;3047;42.600;23.470;2023-06-24T10:18:05;93195.47;;;32.17;59.36
6038;BME280;3047;42.600;23.470;2023-06-24T10:20:50;93187.66;;;32.09;60.78
6038;BME280;3047;42.600;23.470;2023-06-24T10:23:16;93181.41;;;32.18;62.58
6038;BME280;3047;42.600;23.470;2023-06-24T10:25:46;93165.88;;;32.25;62.93
6038;BME280;3047;42.600;23.470;2023-06-24T10:28:13;93164.00;;;32.42;60.29
6038;BME280;3047;42.600;23.470;2023-06-24T10:30:54;93165.91;;;32.48;58.40
6038;BME280;3047;42.600;23.470;2023-06-24T10:33:23;93161.06;;;32.60;57.49
6038;BME280;3047;42.600;23.470;2023-06-24T10:35:50;93144.28;;;32.54;63.73
6038;BME280;3047;42.600;23.470;2023-06-24T10:38:18;93145.72;;;32.57;61.53
6038;BME280;3047;42.600;23.470;2023-06-24T10:40:45;93146.25;;;32.52;61.91
6038;BME280;3047;42.600;23.470;2023-06-24T10:43:27;93146.53;;;32.57;58.77
6038;BME280;3047;42.600;23.470;2023-06-24T10:45:56;93131.22;;;32.54;56.51
6038;BME280;3047;42.600;23.470;2023-06-24T10:48:24;93128.22;;;32.57;59.67
6038;BME280;3047;42.600;23.470;2023-06-24T10:50:51;93116.00;;;32.58;60.52
6038;BME280;3047;42.600;23.470;2023-06-24T10:53:18;93122.66;;;32.60;59.96
6038;BME280;3047;42.600;23.470;2023-06-24T10:55:45;93123.00;;;32.57;60.90
6038;BME280;3047;42.600;23.470;2023-06-24T10:58:13;93126.44;;;32.58;60.79
6038;BME280;3047;42.600;23.470;2023-06-24T11:00:41;93116.97;;;32.57;59.83
6038;BME280;3047;42.600;23.470;2023-06-24T11:03:09;93125.13;;;32.62;61.73
6038;BME280;3047;42.600;23.470;2023-06-24T11:05:39;93106.41;;;32.50;60.27
6038;BME280;3047;42.600;23.470;2023-06-24T11:08:06;93116.72;;;32.66;60.49
6038;BME280;3047;42.600;23.470;2023-06-24T11:10:33;93111.53;;;32.81;61.76
6038;BME280;3047;42.600;23.470;2023-06-24T11:13:07;93105.47;;;32.81;64.22
6038;BME280;3047;42.600;23.470;2023-06-24T11:15:34;93106.75;;;32.47;61.65
6038;BME280;3047;42.600;23.470;2023-06-24T11:18:02;93098.25;;;32.22;61.61
6038;BME280;3047;42.600;23.470;2023-06-24T11:20:29;93054.69;;;31.52;55.53
6038;BME280;3047;42.600;23.470;2023-06-24T11:22:57;93104.63;;;31.49;62.10
6038;BME280;3047;42.600;23.470;2023-06-24T11:25:24;93121.16;;;31.33;62.46
6038;BME280;3047;42.600;23.470;2023-06-24T11:27:51;93114.19;;;31.01;60.79
6038;BME280;3047;42.600;23.470;2023-06-24T11:30:18;93123.31;;;30.97;63.11
6038;BME280;3047;42.600;23.470;2023-06-24T11:32:45;93117.44;;;30.87;62.55
6038;BME280;3047;42.600;23.470;2023-06-24T11:35:13;93118.94;;;30.81;66.01
6038;BME280;3047;42.600;23.470;2023-06-24T11:37:41;93108.16;;;30.60;66.15
6038;BME280;3047;42.600;23.470;2023-06-24T11:40:11;93113.53;;;30.42;65.94
6038;BME280;3047;42.600;23.470;2023-06-24T11:42:40;93107.16;;;30.20;65.97
6038;BME280;3047;42.600;23.470;2023-06-24T11:45:10;93127.84;;;30.21;71.98
6038;BME280;3047;42.600;23.470;2023-06-24T11:47:38;93122.31;;;30.16;72.41
6038;BME280;3047;42.600;23.470;2023-06-24T11:50:06;93108.41;;;29.99;75.94
6038;BME280;3047;42.600;23.470;2023-06-24T11:52:38;93104.81;;;30.00;79.65
6038;BME280;3047;42.600;23.470;2023-06-24T11:55:13;93098.94;;;29.90;79.63
6038;BME280;3047;42.600;23.470;2023-06-24T11:57:53;93091.06;;;29.66;72.35
6038;BME280;3047;42.600;23.470;2023-06-24T12:00:21;93082.50;;;29.47;77.23
6038;BME280;3047;42.600;23.470;2023-06-24T12:02:56;93081.38;;;29.50;77.83
6038;BME280;3047;42.600;23.470;2023-06-24T12:05:24;93090.97;;;29.49;83.30
6038;BME280;3047;42.600;23.470;2023-06-24T12:07:54;93074.66;;;29.39;80.78
6038;BME280;3047;42.600;23.470;2023-06-24T12:10:23;93066.16;;;29.29;81.07
6038;BME280;3047;42.600;23.470;2023-06-24T12:12:50;93038.44;;;29.12;82.58
6038;BME280;3047;42.600;23.470;2023-06-24T12:15:16;93059.59;;;29.17;81.28
6038;BME280;3047;42.600;23.470;2023-06-24T12:17:43;93063.84;;;29.18;81.39
6038;BME280;3047;42.600;23.470;2023-06-24T12:20:10;93054.22;;;29.10;79.76
6038;BME280;3047;42.600;23.470;2023-06-24T12:22:39;93046.41;;;28.84;72.00
6038;BME280;3047;42.600;23.470;2023-06-24T12:25:06;93058.41;;;28.77;76.18
6038;BME280;3047;42.600;23.470;2023-06-24T12:27:34;93054.91;;;28.68;76.71
6038;BME280;3047;42.600;23.470;2023-06-24T12:30:01;93049.47;;;28.53;78.72
6038;BME280;3047;42.600;23.470;2023-06-24T12:32:28;93044.91;;;28.55;80.95
6038;BME280;3047;42.600;23.470;2023-06-24T12:34:55;93023.63;;;28.34;82.48
6038;BME280;3047;42.600;23.470;2023-06-24T12:37:22;93064.59;;;28.58;84.09
6038;BME280;3047;42.600;23.470;2023-06-24T12:39:48;93088.66;;;28.60;85.82
6038;BME280;3047;42.600;23.470;2023-06-24T12:42:16;93092.97;;;28.51;85.27
6038;BME280;3047;42.600;23.470;2023-06-24T12:44:44;93077.13;;;28.37;81.90
6038;BME280;3047;42.600;23.470;2023-06-24T12:47:11;93040.13;;;28.07;82.84
6038;BME280;3047;42.600;23.470;2023-06-24T12:49:38;93085.28;;;28.24;80.78
6038;BME280;3047;42.600;23.470;2023-06-24T12:52:04;93091.34;;;28.15;83.53
6038;BME280;3047;42.600;23.470;2023-06-24T12:54:31;93095.88;;;28.13;84.51
6038;BME280;3047;42.600;23.470;2023-06-24T12:56:58;93095.28;;;28.01;86.27
6038;BME280;3047;42.600;23.470;2023-06-24T12:59:24;93110.34;;;27.97;85.91
6038;BME280;3047;42.600;23.470;2023-06-24T13:01:52;93116.09;;;27.91;85.02
6038;BME280;3047;42.600;23.470;2023-06-24T13:04:19;93089.38;;;27.53;85.85
6038;BME280;3047;42.600;23.470;2023-06-24T13:06:48;93098.72;;;27.46;87.18
6038;BME280;3047;42.600;23.470;2023-06-24T13:09:14;93096.44;;;27.43;90.20